Time;durP1;ratioP1;P1;durP2;ratioP2;P2;SDS_P1;SDS_P2;PMS_P1;PMS_P2;Temp;Humidity;BMP_temperature;BMP_pressure;BME280_temperature;BME280_humidity;BME280_pressure;Samples;Min_cycle;Max_cycle;Signal;HPM_P1;HPM_P2
2023/06/15 00:01:22;;;;;;;4.40;2.53;;;15.80;99.90;;;;;;5095113;28;20770;-50
2023/06/15 00:03:51;;;;;;;6.23;2.30;;;15.80;99.90;;;;;;5095409;28;20589;-52
2023/06/15 00:06:20;;;;;;;4.93;2.33;;;15.70;99.90;;;;;;5095431;28;20215;-52
2023/06/15 00:08:48;;;;;;;6.20;2.43;;;15.70;99.90;;;;;;5095169;28;20227;-49
2023/06/15 00:11:16;;;;;;;4.90;2.47;;;15.70;99.90;;;;;;5095360;28;20228;-52
2023/06/15 00:13:44;;;;;;;3.27;2.50;;;15.70;99.90;;;;;;5094963;28;20218;-51
2023/06/15 00:16:18;;;;;;;5.50;2.50;;;15.60;99.90;;;;;;5095053;28;20222;-49
2023/06/15 00:18:47;;;;;;;3.60;2.20;;;15.60;99.90;;;;;;5095694;28;20759;-51
2023/06/15 00:21:16;;;;;;;5.93;2.60;;;15.60;99.90;;;;;;5100348;28;20214;-54
2023/06/15 00:23:46;;;;;;;3.30;2.17;;;15.60;99.90;;;;;;5114220;28;20705;-57
2023/06/15 00:26:14;;;;;;;4.80;2.30;;;15.50;99.90;;;;;;5094935;28;20268;-57
2023/06/15 00:28:44;;;;;;;3.40;2.67;;;15.50;99.90;;;;;;5076600;28;20235;-57
2023/06/15 00:31:14;;;;;;;3.87;2.50;;;15.40;99.90;;;;;;5076223;28;20266;-57
2023/06/15 00:33:42;;;;;;;4.70;2.70;;;15.40;99.90;;;;;;5094699;28;20247;-57
2023/06/15 00:36:12;;;;;;;6.43;2.70;;;15.30;99.90;;;;;;5094840;28;20264;-57
2023/06/15 00:38:40;;;;;;;4.10;2.63;;;15.30;99.90;;;;;;5094565;28;20734;-56
2023/06/15 00:41:08;;;;;;;6.40;2.60;;;15.20;99.90;;;;;;5094678;28;20335;-57
2023/06/15 00:43:38;;;;;;;3.53;2.27;;;15.20;99.90;;;;;;5094578;28;20214;-57
2023/06/15 00:46:06;;;;;;;2.97;2.40;;;15.20;99.90;;;;;;5092236;28;20227;-57
2023/06/15 00:48:36;;;;;;;5.30;2.33;;;15.20;99.90;;;;;;5098922;28;20298;-57
2023/06/15 00:51:05;;;;;;;4.70;2.83;;;15.10;99.90;;;;;;5094302;28;20222;-57
2023/06/15 00:53:33;;;;;;;3.73;2.57;;;15.10;99.90;;;;;;5080278;28;20226;-54
2023/06/15 00:56:01;;;;;;;5.53;2.50;;;15.00;99.90;;;;;;5097642;28;20605;-57
2023/06/15 00:58:30;;;;;;;4.93;2.50;;;15.00;99.90;;;;;;5098507;28;20218;-56
2023/06/15 01:01:00;;;;;;;3.53;2.73;;;15.00;99.90;;;;;;5093815;28;20236;-57
2023/06/15 01:03:31;;;;;;;5.30;2.50;;;15.00;99.90;;;;;;5092856;28;20280;-56
2023/06/15 01:06:01;;;;;;;3.23;2.30;;;15.00;99.90;;;;;;5094263;28;20220;-57
2023/06/15 01:08:29;;;;;;;4.47;3.07;;;14.90;99.90;;;;;;5092630;28;20237;-57
2023/06/15 01:10:58;;;;;;;4.17;2.70;;;14.90;99.90;;;;;;5094164;28;20214;-57
2023/06/15 01:13:26;;;;;;;4.70;2.60;;;14.90;99.90;;;;;;5093840;28;20218;-56
2023/06/15 01:16:00;;;;;;;2.37;2.03;;;14.90;99.90;;;;;;5093971;28;20222;-57
2023/06/15 01:18:29;;;;;;;4.80;2.60;;;14.80;99.90;;;;;;5101828;28;20227;-56
2023/06/15 01:21:01;;;;;;;4.83;2.60;;;14.80;99.90;;;;;;5083874;28;20226;-57
2023/06/15 01:23:37;;;;;;;4.33;2.73;;;14.70;99.90;;;;;;5097366;28;20226;-56
2023/06/15 01:26:08;;;;;;;4.83;2.47;;;14.70;99.90;;;;;;5085720;28;20313;-57
2023/06/15 01:28:40;;;;;;;3.27;2.53;;;14.70;99.90;;;;;;5075197;28;20222;-57
2023/06/15 01:31:10;;;;;;;4.27;2.50;;;14.70;99.90;;;;;;5093238;28;20705;-57
2023/06/15 01:33:49;;;;;;;5.37;2.70;;;14.70;99.90;;;;;;5077052;28;20683;-57
2023/06/15 01:36:18;;;;;;;4.50;2.30;;;14.70;99.90;;;;;;5083455;28;20232;-57
2023/06/15 01:38:49;;;;;;;3.93;2.63;;;14.70;99.90;;;;;;5093419;28;20222;-56
2023/06/15 01:41:20;;;;;;;7.00;2.73;;;14.60;99.90;;;;;;5093551;28;20215;-57
2023/06/15 01:43:49;;;;;;;4.17;2.83;;;14.60;99.90;;;;;;5093191;28;20248;-57
2023/06/15 01:46:18;;;;;;;4.57;2.50;;;14.60;99.90;;;;;;5093395;28;20229;-57
2023/06/15 01:48:46;;;;;;;4.60;2.50;;;14.50;99.90;;;;;;5101404;28;20709;-56
2023/06/15 01:51:17;;;;;;;5.93;3.07;;;14.60;99.90;;;;;;5101740;28;20218;-56
2023/06/15 01:53:45;;;;;;;3.93;2.60;;;14.50;99.90;;;;;;5079694;28;20234;-56
2023/06/15 01:56:15;;;;;;;3.00;2.70;;;14.40;99.90;;;;;;5075023;28;20223;-56
2023/06/15 01:58:45;;;;;;;5.47;2.70;;;14.40;99.90;;;;;;5074894;28;20641;-57
2023/06/15 02:01:13;;;;;;;3.03;2.70;;;14.30;99.90;;;;;;5074324;28;20227;-57
2023/06/15 02:03:41;;;;;;;2.80;2.30;;;14.30;99.90;;;;;;5074617;28;20222;-57
2023/06/15 02:06:11;;;;;;;3.50;2.43;;;14.20;99.90;;;;;;5093191;28;20223;-57
2023/06/15 02:08:39;;;;;;;3.70;2.60;;;14.30;99.90;;;;;;5092852;28;20742;-56
2023/06/15 02:11:09;;;;;;;3.10;2.40;;;14.30;99.90;;;;;;5074907;28;20253;-57
2023/06/15 02:13:37;;;;;;;3.17;2.80;;;14.30;99.90;;;;;;5074154;28;20283;-56
2023/06/15 02:16:08;;;;;;;3.37;2.60;;;14.30;99.90;;;;;;5074468;28;20234;-57
2023/06/15 02:18:37;;;;;;;2.93;2.63;;;14.30;99.90;;;;;;5082556;28;20567;-57
2023/06/15 02:21:05;;;;;;;3.00;2.50;;;14.30;99.90;;;;;;5091128;28;20301;-57
2023/06/15 02:23:34;;;;;;;6.27;3.07;;;14.20;99.90;;;;;;5111578;28;20275;-56
2023/06/15 02:26:02;;;;;;;5.00;2.93;;;14.20;99.90;;;;;;5077582;28;20218;-57
2023/06/15 02:28:31;;;;;;;3.73;2.60;;;14.20;99.90;;;;;;5092542;28;20218;-57
2023/06/15 02:30:59;;;;;;;2.77;2.47;;;14.20;99.90;;;;;;5074073;28;20332;-55
2023/06/15 02:33:29;;;;;;;2.70;2.50;;;14.10;99.90;;;;;;5073976;28;20222;-56
2023/06/15 02:35:57;;;;;;;3.80;2.80;;;14.10;99.90;;;;;;5092715;28;20762;-56
2023/06/15 02:38:27;;;;;;;4.83;2.90;;;14.00;99.90;;;;;;5074372;28;20222;-56
2023/06/15 02:40:55;;;;;;;5.33;2.93;;;14.00;99.90;;;;;;5073997;28;20219;-57
2023/06/15 02:43:23;;;;;;;3.70;2.80;;;13.90;99.90;;;;;;5092642;28;20238;-57
2023/06/15 02:45:51;;;;;;;3.23;2.60;;;13.90;99.90;;;;;;5074543;28;20230;-57
2023/06/15 02:48:20;;;;;;;4.47;2.93;;;13.90;99.90;;;;;;5082761;28;20724;-56
2023/06/15 02:50:49;;;;;;;3.77;2.90;;;13.90;99.90;;;;;;5082387;28;20271;-56
2023/06/15 02:53:22;;;;;;;4.27;2.70;;;13.90;99.90;;;;;;5095045;28;20214;-56
2023/06/15 02:55:53;;;;;;;3.93;2.70;;;13.80;99.90;;;;;;5075430;28;20225;-57
2023/06/15 02:58:24;;;;;;;5.53;2.80;;;13.80;99.90;;;;;;5074377;28;20226;-57
2023/06/15 03:01:07;;;;;;;3.87;3.00;;;13.80;99.90;;;;;;5073916;28;20717;-57
2023/06/15 03:03:45;;;;;;;3.77;2.80;;;13.80;99.90;;;;;;5074165;28;20234;-55
2023/06/15 03:06:15;;;;;;;3.70;2.40;;;13.80;99.90;;;;;;5074332;28;20245;-56
2023/06/15 03:08:44;;;;;;;4.17;2.60;;;13.80;99.90;;;;;;5082336;28;20597;-57
2023/06/15 03:11:26;;;;;;;3.07;2.77;;;13.70;99.90;;;;;;5092345;28;20775;-57
2023/06/15 03:13:55;;;;;;;4.37;2.70;;;13.70;99.90;;;;;;5074239;28;20593;-55
2023/06/15 03:16:24;;;;;;;3.63;2.50;;;13.70;99.90;;;;;;5073064;28;20223;-57
2023/06/15 03:18:53;;;;;;;6.83;3.00;;;13.70;99.90;;;;;;5076025;28;20333;-56
2023/06/15 03:21:25;;;;;;;4.37;3.17;;;13.70;99.90;;;;;;5082127;28;20282;-57
2023/06/15 03:23:55;;;;;;;2.53;2.20;;;13.70;99.90;;;;;;5078520;28;20286;-57
2023/06/15 03:26:27;;;;;;;3.93;2.73;;;13.70;99.90;;;;;;5073831;28;20253;-55
2023/06/15 03:28:57;;;;;;;3.30;2.80;;;13.70;99.90;;;;;;5074114;28;20234;-57
2023/06/15 03:31:28;;;;;;;3.83;3.03;;;13.80;99.90;;;;;;5073055;28;20233;-57
2023/06/15 03:33:58;;;;;;;4.33;2.70;;;13.80;99.90;;;;;;5073969;28;20656;-57
2023/06/15 03:36:29;;;;;;;3.87;2.87;;;13.70;99.90;;;;;;5073818;28;20235;-55
2023/06/15 03:38:58;;;;;;;3.97;2.67;;;13.70;99.90;;;;;;5092088;28;20623;-57
2023/06/15 03:41:27;;;;;;;4.40;2.80;;;13.70;99.90;;;;;;5073738;28;20253;-56
2023/06/15 03:43:56;;;;;;;5.60;2.73;;;13.80;99.90;;;;;;5073932;28;20227;-57
2023/06/15 03:46:24;;;;;;;5.10;2.90;;;13.80;99.90;;;;;;5073745;28;20230;-56
2023/06/15 03:48:52;;;;;;;6.73;2.90;;;13.90;99.90;;;;;;5084100;28;20223;-56
2023/06/15 03:51:21;;;;;;;3.67;2.33;;;13.90;99.90;;;;;;5081457;28;20229;-57
2023/06/15 03:53:50;;;;;;;4.87;2.57;;;14.00;99.90;;;;;;5100152;28;20218;-56
2023/06/15 03:56:18;;;;;;;5.67;2.80;;;14.00;99.90;;;;;;5095558;28;20293;-57
2023/06/15 03:58:46;;;;;;;4.47;2.60;;;14.10;99.90;;;;;;5077145;28;20229;-57
2023/06/15 04:01:15;;;;;;;4.47;2.57;;;14.20;99.90;;;;;;5078515;28;20230;-56
2023/06/15 04:03:43;;;;;;;5.30;2.37;;;14.30;99.90;;;;;;5095259;28;20253;-57
2023/06/15 04:06:11;;;;;;;4.00;2.80;;;14.40;99.90;;;;;;5094192;28;20231;-56
2023/06/15 04:08:39;;;;;;;3.77;2.60;;;14.40;99.90;;;;;;5093916;28;20329;-55
2023/06/15 04:11:09;;;;;;;3.27;2.70;;;14.50;99.90;;;;;;5093979;28;20570;-56
2023/06/15 04:13:38;;;;;;;4.47;3.00;;;14.60;99.90;;;;;;5087318;28;20219;-56
2023/06/15 04:16:07;;;;;;;4.23;3.03;;;14.60;99.90;;;;;;5095128;28;20257;-56
2023/06/15 04:18:35;;;;;;;3.43;2.73;;;14.70;99.90;;;;;;5076405;28;20244;-57
2023/06/15 04:21:05;;;;;;;6.50;2.87;;;14.80;99.90;;;;;;5056872;28;20319;-57
2023/06/15 04:23:34;;;;;;;4.23;3.00;;;14.80;99.90;;;;;;5065278;28;20313;-56
2023/06/15 04:26:04;;;;;;;3.17;2.60;;;14.90;99.90;;;;;;5068725;28;20226;-56
2023/06/15 04:28:35;;;;;;;3.10;2.60;;;15.00;99.90;;;;;;5076627;28;20582;-56
2023/06/15 04:31:09;;;;;;;3.10;2.80;;;15.10;99.90;;;;;;5094146;28;20227;-57
2023/06/15 04:33:42;;;;;;;5.13;2.63;;;15.20;99.90;;;;;;5074753;28;20693;-56
2023/06/15 04:36:13;;;;;;;5.17;3.00;;;15.20;99.90;;;;;;5084031;28;20746;-57
2023/06/15 04:38:46;;;;;;;4.10;2.93;;;15.30;99.90;;;;;;5094561;28;20258;-56
2023/06/15 04:41:18;;;;;;;4.47;2.80;;;15.40;99.90;;;;;;5076627;28;20226;-57
2023/06/15 04:43:48;;;;;;;4.43;3.13;;;15.50;99.90;;;;;;5076467;28;20283;-56
2023/06/15 04:46:17;;;;;;;3.93;2.97;;;15.60;99.90;;;;;;5076538;28;20719;-57
2023/06/15 04:48:47;;;;;;;3.53;2.83;;;15.70;99.90;;;;;;5091907;28;20313;-56
2023/06/15 04:51:16;;;;;;;3.27;2.73;;;15.80;99.90;;;;;;5076209;28;20230;-55
2023/06/15 04:53:44;;;;;;;4.50;2.70;;;15.90;99.90;;;;;;5080939;28;20234;-56
2023/06/15 04:56:13;;;;;;;4.40;2.93;;;16.10;99.90;;;;;;5094361;28;20301;-56
2023/06/15 04:58:42;;;;;;;7.03;2.90;;;16.20;99.90;;;;;;5074913;28;20305;-57
2023/06/15 05:01:11;;;;;;;3.83;2.70;;;16.40;99.90;;;;;;5090820;28;20593;-57
2023/06/15 05:03:40;;;;;;;3.80;2.93;;;16.50;99.90;;;;;;5070731;28;20609;-57
2023/06/15 05:06:08;;;;;;;7.67;3.10;;;16.70;99.90;;;;;;5076162;28;20234;-57
2023/06/15 05:08:37;;;;;;;4.87;2.90;;;16.80;99.90;;;;;;5071444;28;20267;-57
2023/06/15 05:11:06;;;;;;;4.77;3.53;;;17.00;99.90;;;;;;5075811;28;20230;-57
2023/06/15 05:13:35;;;;;;;4.57;2.97;;;17.10;99.90;;;;;;5080109;28;20211;-57
2023/06/15 05:16:03;;;;;;;5.80;3.43;;;17.30;99.90;;;;;;5069345;28;20218;-57
2023/06/15 05:18:33;;;;;;;7.00;3.63;;;17.60;99.90;;;;;;5075380;28;20694;-57
2023/06/15 05:21:01;;;;;;;7.83;3.60;;;17.60;99.90;;;;;;5114251;28;20683;-57
2023/06/15 05:23:33;;;;;;;8.63;3.60;;;17.70;99.90;;;;;;5095847;28;20256;-57
2023/06/15 05:26:02;;;;;;;6.37;3.43;;;17.80;99.90;;;;;;5067375;28;20702;-57
2023/06/15 05:28:31;;;;;;;7.63;3.40;;;17.90;99.90;;;;;;5071162;28;20716;-57
2023/06/15 05:31:00;;;;;;;5.77;3.40;;;18.00;99.90;;;;;;5074883;28;20323;-57
2023/06/15 05:33:29;;;;;;;9.97;3.70;;;18.00;99.90;;;;;;5075499;28;20322;-57
2023/06/15 05:35:58;;;;;;;7.10;3.60;;;18.00;99.90;;;;;;5075645;28;20225;-57
2023/06/15 05:38:34;;;;;;;4.13;2.83;;;18.20;99.90;;;;;;5076354;28;20227;-58
2023/06/15 05:41:02;;;;;;;5.63;2.90;;;18.50;99.90;;;;;;5083891;28;20708;-56
2023/06/15 05:43:30;;;;;;;7.27;3.40;;;18.60;99.90;;;;;;5092187;28;20224;-57
2023/06/15 05:45:58;;;;;;;8.90;3.10;;;18.80;99.90;;;;;;5081217;28;20734;-57
2023/06/15 05:48:26;;;;;;;5.67;2.93;;;19.00;99.90;;;;;;5070943;28;20220;-55
2023/06/15 05:50:55;;;;;;;4.77;2.87;;;19.30;99.90;;;;;;5073171;28;20370;-57
2023/06/15 05:53:25;;;;;;;5.23;3.13;;;19.40;99.90;;;;;;5075162;28;20320;-57
2023/06/15 05:55:53;;;;;;;11.27;4.03;;;19.50;99.90;;;;;;5089165;28;20230;-57
2023/06/15 05:58:21;;;;;;;6.50;3.40;;;19.50;99.90;;;;;;5091177;28;20325;-57
2023/06/15 06:00:50;;;;;;;9.70;3.60;;;19.40;99.90;;;;;;5061838;28;20243;-55
2023/06/15 06:03:18;;;;;;;7.83;3.40;;;19.40;99.90;;;;;;5079020;28;20234;-57
2023/06/15 06:05:49;;;;;;;9.30;3.60;;;19.50;99.90;;;;;;5059382;28;20232;-55
2023/06/15 06:08:18;;;;;;;8.43;3.27;;;19.90;99.90;;;;;;5079621;28;20217;-57
2023/06/15 06:10:48;;;;;;;7.83;3.40;;;20.20;99.90;;;;;;5077023;28;20227;-56
2023/06/15 06:13:33;;;;;;;10.17;3.60;;;20.40;99.90;;;;;;5056733;28;20229;-54
2023/06/15 06:16:02;;;;;;;8.83;3.43;;;21.00;99.90;;;;;;5058160;28;20699;-53
2023/06/15 06:18:30;;;;;;;12.00;4.40;;;21.20;99.90;;;;;;5078693;28;20306;-57
2023/06/15 06:20:58;;;;;;;8.20;3.60;;;21.40;99.90;;;;;;5077670;28;20655;-54
2023/06/15 06:23:26;;;;;;;8.77;3.00;;;21.50;99.90;;;;;;5058982;28;20230;-55
2023/06/15 06:25:58;;;;;;;9.13;3.50;;;21.70;99.90;;;;;;5064371;28;20237;-55
2023/06/15 06:28:26;;;;;;;7.53;3.67;;;22.00;99.90;;;;;;5083449;28;20244;-54
2023/06/15 06:30:54;;;;;;;9.17;3.50;;;22.00;99.90;;;;;;5083263;28;20241;-54
2023/06/15 06:33:22;;;;;;;6.17;3.30;;;22.30;99.90;;;;;;5084048;28;20218;-56
2023/06/15 06:35:50;;;;;;;9.53;3.43;;;22.30;99.90;;;;;;5072479;28;20363;-56
2023/06/15 06:38:18;;;;;;;6.83;3.20;;;22.40;99.90;;;;;;5087741;28;20325;-55
2023/06/15 06:40:47;;;;;;;6.40;3.20;;;22.50;99.90;;;;;;5085750;28;20418;-57
2023/06/15 06:43:16;;;;;;;10.00;3.50;;;22.90;99.90;;;;;;5084060;28;20693;-57
2023/06/15 06:45:44;;;;;;;6.77;3.50;;;23.10;99.90;;;;;;5083401;28;20262;-56
2023/06/15 06:48:12;;;;;;;7.83;3.13;;;23.20;99.90;;;;;;5082745;28;20620;-56
2023/06/15 06:50:40;;;;;;;4.53;3.00;;;23.50;99.90;;;;;;5082654;28;20226;-56
2023/06/15 06:53:08;;;;;;;6.60;2.93;;;23.70;99.90;;;;;;5083336;28;20226;-57
2023/06/15 06:55:36;;;;;;;5.40;3.20;;;23.90;99.90;;;;;;5083978;28;20571;-56
2023/06/15 06:58:05;;;;;;;5.73;2.77;;;24.20;99.90;;;;;;5082170;28;20218;-56
2023/06/15 07:00:34;;;;;;;5.77;2.73;;;24.20;99.90;;;;;;5078352;28;20322;-55
2023/06/15 07:03:02;;;;;;;4.67;2.80;;;24.40;99.90;;;;;;5081969;28;20225;-57
2023/06/15 07:05:31;;;;;;;5.13;3.00;;;24.60;99.90;;;;;;5084123;28;20232;-52
2023/06/15 07:08:00;;;;;;;5.63;3.10;;;25.00;99.90;;;;;;5084299;28;20303;-56
2023/06/15 07:10:28;;;;;;;5.53;2.60;;;25.20;99.90;;;;;;5083080;28;20243;-57
2023/06/15 07:12:56;;;;;;;3.87;2.70;;;25.50;99.90;;;;;;5085757;28;20584;-55
2023/06/15 07:15:27;;;;;;;4.23;2.77;;;25.70;99.90;;;;;;5086040;28;20227;-53
2023/06/15 07:17:56;;;;;;;6.60;3.40;;;25.60;99.90;;;;;;5084919;28;20233;-56
2023/06/15 07:20:25;;;;;;;5.67;2.90;;;25.10;99.90;;;;;;5085210;28;20276;-56
2023/06/15 07:22:53;;;;;;;6.17;2.73;;;24.80;99.90;;;;;;5085463;28;20226;-57
2023/06/15 07:25:21;;;;;;;4.13;2.83;;;25.00;99.90;;;;;;5085673;28;20592;-57
2023/06/15 07:27:49;;;;;;;6.80;2.90;;;25.10;99.90;;;;;;5087656;28;20222;-58
2023/06/15 07:30:17;;;;;;;6.03;2.80;;;24.90;99.90;;;;;;5086995;28;20722;-58
2023/06/15 07:32:46;;;;;;;6.23;2.83;;;24.70;99.90;;;;;;5088200;28;20581;-57
2023/06/15 07:35:15;;;;;;;5.83;3.10;;;24.90;99.90;;;;;;5089678;28;20224;-54
2023/06/15 07:37:43;;;;;;;4.10;2.80;;;25.00;99.90;;;;;;5085653;28;20782;-57
2023/06/15 07:40:12;;;;;;;6.37;2.67;;;24.90;99.90;;;;;;5084098;28;20337;-55
2023/06/15 07:42:40;;;;;;;6.00;2.97;;;24.90;99.90;;;;;;5085923;28;20254;-57
2023/06/15 07:45:10;;;;;;;9.30;2.67;;;24.90;99.90;;;;;;5085261;28;20628;-57
2023/06/15 07:47:38;;;;;;;5.47;2.80;;;24.60;99.90;;;;;;5086900;28;20801;-57
2023/06/15 07:50:07;;;;;;;3.77;2.60;;;24.50;99.90;;;;;;5082807;28;20305;-55
2023/06/15 07:52:36;;;;;;;8.03;2.63;;;24.50;99.90;;;;;;5084841;28;20259;-55
2023/06/15 07:55:05;;;;;;;5.07;2.77;;;24.60;99.90;;;;;;5088439;28;20247;-56
2023/06/15 07:57:34;;;;;;;7.10;2.47;;;24.70;99.90;;;;;;5086530;28;20235;-57
2023/06/15 08:00:04;;;;;;;4.90;2.80;;;24.90;99.90;;;;;;5083986;28;20983;-58
2023/06/15 08:02:32;;;;;;;4.13;2.70;;;24.90;99.90;;;;;;5084366;28;21097;-53
2023/06/15 08:05:00;;;;;;;5.77;2.90;;;25.00;99.90;;;;;;5084306;28;20924;-57
2023/06/15 08:07:29;;;;;;;6.53;2.50;;;25.60;99.90;;;;;;5086951;28;20722;-57
2023/06/15 08:09:59;;;;;;;7.37;2.90;;;26.20;99.90;;;;;;5087953;28;20232;-57
2023/06/15 08:12:27;;;;;;;7.60;2.73;;;26.70;99.50;;;;;;5085505;28;20222;-57
2023/06/15 08:14:55;;;;;;;4.93;2.50;;;27.20;97.60;;;;;;5086600;28;20235;-56
2023/06/15 08:17:24;;;;;;;7.17;2.90;;;27.40;98.50;;;;;;5087234;28;20236;-54
2023/06/15 08:19:52;;;;;;;6.87;2.57;;;27.30;98.30;;;;;;5082825;28;20730;-56
2023/06/15 08:22:21;;;;;;;4.93;2.83;;;27.00;98.00;;;;;;5085171;28;20222;-54
2023/06/15 08:24:49;;;;;;;5.67;2.90;;;26.80;98.60;;;;;;5089053;28;20589;-56
2023/06/15 08:27:18;;;;;;;3.60;2.40;;;27.10;98.10;;;;;;5089738;28;20234;-55
2023/06/15 08:29:48;;;;;;;4.63;2.73;;;27.20;97.90;;;;;;5084919;28;20229;-55
2023/06/15 08:32:16;;;;;;;3.60;3.00;;;27.30;98.80;;;;;;5087269;28;20269;-57
2023/06/15 08:34:47;;;;;;;8.33;2.73;;;27.60;98.10;;;;;;5088101;28;20866;-56
2023/06/15 08:37:16;;;;;;;6.07;3.20;;;28.00;97.60;;;;;;5087779;28;20217;-55
2023/06/15 08:39:44;;;;;;;5.10;2.77;;;28.00;95.20;;;;;;5087137;28;20307;-55
2023/06/15 08:42:13;;;;;;;3.47;2.60;;;27.90;95.40;;;;;;5088135;28;20344;-57
2023/06/15 08:44:45;;;;;;;4.83;2.80;;;27.60;95.40;;;;;;5085640;28;20601;-55
2023/06/15 08:47:14;;;;;;;8.07;2.83;;;27.60;94.30;;;;;;5085657;28;20225;-54
2023/06/15 08:49:42;;;;;;;4.00;2.87;;;27.50;93.30;;;;;;5084323;28;20357;-57
2023/06/15 08:52:12;;;;;;;3.97;2.50;;;27.70;91.80;;;;;;5084486;28;20239;-56
2023/06/15 08:54:43;;;;;;;3.83;2.47;;;27.70;93.20;;;;;;5085304;28;20752;-57
2023/06/15 08:57:11;;;;;;;3.77;2.40;;;27.50;92.00;;;;;;5083599;28;20233;-57
2023/06/15 08:59:40;;;;;;;5.17;2.47;;;27.60;89.50;;;;;;5081635;28;20743;-57
2023/06/15 09:02:15;;;;;;;7.03;2.47;;;27.70;90.20;;;;;;5086097;28;20700;-57
2023/06/15 09:04:43;;;;;;;3.63;2.43;;;27.90;91.00;;;;;;5085710;28;20289;-55
2023/06/15 09:07:12;;;;;;;3.10;2.40;;;27.90;90.90;;;;;;5073292;28;20322;-56
2023/06/15 09:10:01;;;;;;;3.50;2.47;;;27.80;91.70;;;;;;5086453;28;21111;-58
2023/06/15 09:12:29;;;;;;;4.20;2.40;;;27.70;90.70;;;;;;5088476;28;20222;-56
2023/06/15 09:14:57;;;;;;;5.27;2.40;;;27.50;91.10;;;;;;5085384;28;20236;-57
2023/06/15 09:17:29;;;;;;;5.70;2.60;;;27.30;90.70;;;;;;5086596;28;20241;-57
2023/06/15 09:19:57;;;;;;;4.00;2.40;;;27.70;89.20;;;;;;5085128;28;20242;-58
2023/06/15 09:22:26;;;;;;;4.47;2.57;;;28.30;89.90;;;;;;5087481;28;20252;-56
2023/06/15 09:24:55;;;;;;;5.07;2.60;;;28.70;89.50;;;;;;5086728;28;20230;-56
2023/06/15 09:27:24;;;;;;;3.80;2.43;;;28.90;86.90;;;;;;5088132;28;20738;-57
2023/06/15 09:30:03;;;;;;;5.80;2.43;;;28.60;85.00;;;;;;5084844;28;20241;-53
2023/06/15 09:32:33;;;;;;;4.37;2.77;;;28.00;87.30;;;;;;5085481;28;20240;-53
2023/06/15 09:35:03;;;;;;;3.37;2.47;;;27.30;88.20;;;;;;5084102;28;20226;-58
2023/06/15 09:37:33;;;;;;;4.80;2.80;;;27.40;90.70;;;;;;5082362;28;20228;-57
2023/06/15 09:40:04;;;;;;;4.83;2.60;;;27.50;90.70;;;;;;5083823;28;20262;-54
2023/06/15 09:42:33;;;;;;;4.67;2.73;;;27.50;90.60;;;;;;5083969;28;20240;-55
2023/06/15 09:45:03;;;;;;;3.53;2.60;;;27.30;91.30;;;;;;5084287;28;20313;-55
2023/06/15 09:47:33;;;;;;;6.87;2.73;;;27.50;91.10;;;;;;5084948;28;20226;-55
2023/06/15 09:50:01;;;;;;;5.13;2.50;;;27.70;89.00;;;;;;5069021;28;20256;-56
2023/06/15 09:52:31;;;;;;;4.23;2.77;;;27.90;87.20;;;;;;5088506;28;20222;-56
2023/06/15 09:54:59;;;;;;;4.37;2.67;;;27.70;88.60;;;;;;5086583;28;20227;-56
2023/06/15 09:57:28;;;;;;;7.80;2.87;;;27.50;88.60;;;;;;5088130;28;20221;-56
2023/06/15 09:59:56;;;;;;;5.83;2.40;;;27.20;87.80;;;;;;5085672;28;20706;-55
2023/06/15 10:02:24;;;;;;;4.33;2.60;;;27.10;89.00;;;;;;5086357;28;20285;-53
2023/06/15 10:04:55;;;;;;;4.33;2.27;;;27.40;90.00;;;;;;5085902;28;20752;-55
2023/06/15 10:07:23;;;;;;;6.97;2.57;;;27.60;89.50;;;;;;5069977;28;20290;-54
2023/06/15 10:09:53;;;;;;;3.93;2.50;;;27.80;89.30;;;;;;5084007;28;20235;-56
2023/06/15 10:12:26;;;;;;;3.87;2.50;;;27.90;85.90;;;;;;5088000;28;20227;-56
2023/06/15 10:14:59;;;;;;;7.93;2.90;;;27.90;88.60;;;;;;5083864;28;20238;-54
2023/06/15 10:17:34;;;;;;;4.33;2.60;;;27.70;88.90;;;;;;5086743;28;20218;-57
2023/06/15 10:20:09;;;;;;;5.73;2.60;;;27.90;89.00;;;;;;5083073;28;20257;-55
2023/06/15 10:22:45;;;;;;;4.47;2.70;;;28.30;89.00;;;;;;5084160;28;20628;-56
2023/06/15 10:25:15;;;;;;;8.83;2.90;;;28.50;88.80;;;;;;5082907;28;20260;-54
2023/06/15 10:27:44;;;;;;;3.67;2.67;;;28.80;88.10;;;;;;5083530;28;21072;-57
2023/06/15 10:30:20;;;;;;;4.57;2.60;;;28.90;87.30;;;;;;5084543;28;20316;-53
2023/06/15 10:32:55;;;;;;;7.30;2.87;;;29.40;85.40;;;;;;5085302;28;20588;-56
2023/06/15 10:35:32;;;;;;;4.27;2.47;;;29.50;82.70;;;;;;5083242;28;20234;-54
2023/06/15 10:38:24;;;;;;;5.93;2.90;;;29.30;85.70;;;;;;5083388;28;20222;-56
2023/06/15 10:40:53;;;;;;;9.37;2.90;;;29.80;84.20;;;;;;5079629;28;20238;-53
2023/06/15 10:43:22;;;;;;;5.53;3.10;;;30.40;80.80;;;;;;5086253;28;20235;-56
2023/06/15 10:45:50;;;;;;;5.03;2.37;;;30.70;80.20;;;;;;5085458;28;20301;-56
2023/06/15 10:48:22;;;;;;;5.03;2.63;;;30.40;78.40;;;;;;5086990;28;20594;-54
2023/06/15 10:50:52;;;;;;;5.07;2.97;;;29.70;80.00;;;;;;5082144;28;20798;-57
2023/06/15 10:53:22;;;;;;;5.73;2.70;;;29.30;78.70;;;;;;5081780;28;20832;-55
2023/06/15 10:55:54;;;;;;;5.00;2.60;;;28.80;79.60;;;;;;5083038;28;21159;-55
2023/06/15 10:58:22;;;;;;;3.43;2.57;;;28.70;80.90;;;;;;5082974;28;20257;-55
2023/06/15 11:01:06;;;;;;;5.63;2.63;;;29.30;79.60;;;;;;5079746;28;20672;-54
2023/06/15 11:03:35;;;;;;;5.40;2.33;;;29.30;78.10;;;;;;5087248;28;20749;-55
2023/06/15 11:06:07;;;;;;;3.13;2.30;;;29.50;76.60;;;;;;5087042;28;20848;-57
2023/06/15 11:08:46;;;;;;;5.70;2.60;;;29.80;76.70;;;;;;5086711;28;20717;-56
2023/06/15 11:11:15;;;;;;;5.00;2.80;;;29.50;75.60;;;;;;5084055;28;20718;-57
2023/06/15 11:13:57;;;;;;;5.40;2.50;;;28.80;76.20;;;;;;5084008;28;20230;-56
2023/06/15 11:16:28;;;;;;;7.10;2.73;;;28.00;76.20;;;;;;5082745;28;20309;-56
2023/06/15 11:18:57;;;;;;;3.77;2.43;;;27.60;78.30;;;;;;5083749;28;20249;-54
2023/06/15 11:21:28;;;;;;;3.63;2.43;;;27.50;80.30;;;;;;5080954;28;20233;-57
2023/06/15 11:23:57;;;;;;;4.63;2.60;;;27.70;79.70;;;;;;5083621;28;20236;-53
2023/06/15 11:26:29;;;;;;;2.97;2.40;;;27.90;79.40;;;;;;5084054;28;20226;-56
2023/06/15 11:29:01;;;;;;;3.10;2.30;;;28.10;81.10;;;;;;5083234;28;20937;-55
2023/06/15 11:31:32;;;;;;;3.73;2.60;;;28.00;82.30;;;;;;5081352;28;20229;-55
2023/06/15 11:34:00;;;;;;;4.53;2.50;;;28.40;82.50;;;;;;5088652;28;20680;-56
2023/06/15 11:36:29;;;;;;;7.17;2.70;;;28.40;79.20;;;;;;5090934;28;20267;-52
2023/06/15 11:38:57;;;;;;;4.17;2.50;;;28.50;81.30;;;;;;5088257;28;20277;-56
2023/06/15 11:41:26;;;;;;;4.23;2.60;;;28.20;82.70;;;;;;5081010;28;20788;-53
2023/06/15 11:43:56;;;;;;;4.87;2.40;;;28.00;83.60;;;;;;5083173;28;20230;-55
2023/06/15 11:46:25;;;;;;;4.10;2.60;;;28.00;84.30;;;;;;5082906;28;20226;-56
2023/06/15 11:48:56;;;;;;;4.60;2.60;;;27.90;83.80;;;;;;5082881;28;20314;-54
2023/06/15 11:51:25;;;;;;;6.03;2.80;;;27.60;84.20;;;;;;5080935;28;20241;-55
2023/06/15 11:53:56;;;;;;;4.43;2.77;;;27.40;86.30;;;;;;5085436;28;20226;-56
2023/06/15 11:56:24;;;;;;;4.60;2.80;;;27.30;86.40;;;;;;5082834;28;20700;-55
2023/06/15 11:58:54;;;;;;;4.40;2.67;;;26.90;87.90;;;;;;5082863;28;20231;-57
2023/06/15 12:01:23;;;;;;;4.90;2.90;;;26.70;89.50;;;;;;5079661;28;20273;-53
2023/06/15 12:03:52;;;;;;;3.60;2.77;;;26.30;90.00;;;;;;5082251;28;20241;-54
2023/06/15 12:06:33;;;;;;;7.33;3.10;;;26.10;90.10;;;;;;5081770;28;20727;-56
2023/06/15 12:09:05;;;;;;;5.37;2.57;;;25.90;91.10;;;;;;5082071;28;20337;-51
2023/06/15 12:11:33;;;;;;;3.90;2.90;;;26.20;91.70;;;;;;5080090;28;20241;-55
2023/06/15 12:14:02;;;;;;;7.03;3.00;;;26.60;91.50;;;;;;5081058;28;20233;-55
2023/06/15 12:16:31;;;;;;;6.73;2.83;;;26.60;92.00;;;;;;5082215;28;20225;-56
2023/06/15 12:18:59;;;;;;;5.40;2.77;;;26.50;91.50;;;;;;5082430;28;20267;-55
2023/06/15 12:21:30;;;;;;;3.17;2.50;;;26.50;92.20;;;;;;5080011;28;20721;-55
2023/06/15 12:23:58;;;;;;;4.20;2.80;;;26.80;92.20;;;;;;5082829;28;20234;-54
2023/06/15 12:26:32;;;;;;;4.40;2.80;;;26.90;92.00;;;;;;5082586;28;20229;-55
2023/06/15 12:29:14;;;;;;;6.87;2.90;;;27.00;92.10;;;;;;5081870;28;20245;-53
2023/06/15 12:31:43;;;;;;;4.47;2.83;;;27.00;92.70;;;;;;5078648;28;20246;-53
2023/06/15 12:34:11;;;;;;;4.60;2.80;;;26.90;92.20;;;;;;5082935;28;20910;-56
2023/06/15 12:36:39;;;;;;;3.97;2.80;;;26.70;92.40;;;;;;5086354;28;20316;-56
2023/06/15 12:39:10;;;;;;;5.07;2.90;;;26.30;92.10;;;;;;5085412;28;20222;-56
2023/06/15 12:41:41;;;;;;;5.77;2.87;;;26.10;92.90;;;;;;5080095;28;20586;-56
2023/06/15 12:44:10;;;;;;;6.07;3.17;;;26.10;93.20;;;;;;5082309;28;20569;-57
2023/06/15 12:46:39;;;;;;;6.80;3.10;;;25.70;92.40;;;;;;5080841;28;20718;-55
2023/06/15 12:49:09;;;;;;;5.30;3.20;;;25.60;92.70;;;;;;5081529;28;20221;-56
2023/06/15 12:51:37;;;;;;;7.60;2.97;;;25.70;92.80;;;;;;5059859;28;20235;-56
2023/06/15 12:54:07;;;;;;;3.43;3.00;;;25.70;93.20;;;;;;5088953;28;20247;-56
2023/06/15 12:56:36;;;;;;;5.83;3.03;;;25.60;93.10;;;;;;5086793;28;20237;-53
2023/06/15 12:59:05;;;;;;;4.23;3.17;;;25.50;93.10;;;;;;5087093;28;20226;-56